Time;durP1;ratioP1;P1;durP2;ratioP2;P2;SDS_P1;SDS_P2;PMS_P1;PMS_P2;Temp;Humidity;BMP_temperature;BMP_pressure;BME280_temperature;BME280_humidity;BME280_pressure;Samples;Min_cycle;Max_cycle;Signal;HPM_P1;HPM_P2
2024/01/03 00:02:23;;;;;;;14.20;9.70;;;;;;;8.70;88.23;94224.16;5086854;28;20201;-70
2024/01/03 00:04:50;;;;;;;13.67;9.07;;;;;;;9.01;88.24;94273.19;5085900;28;20194;-69
2024/01/03 00:07:17;;;;;;;12.63;9.03;;;;;;;8.92;88.33;94261.28;5086482;28;20189;-69
2024/01/03 00:09:45;;;;;;;10.43;8.63;;;;;;;9.00;88.17;94292.00;5085912;28;20200;-69
2024/01/03 00:12:22;;;;;;;16.20;9.17;;;;;;;8.98;88.17;94286.22;5086494;28;20197;-67
2024/01/03 00:14:49;;;;;;;13.53;8.77;;;;;;;8.99;88.12;94292.94;5085570;28;20682;-69
2024/01/03 00:17:17;;;;;;;13.37;9.33;;;;;;;8.67;88.11;94243.06;5086443;28;20186;-69
2024/01/03 00:19:45;;;;;;;11.17;8.20;;;;;;;8.96;88.26;94288.91;5092985;28;20201;-71
2024/01/03 00:22:15;;;;;;;15.30;9.90;;;;;;;8.77;88.12;94264.25;5093005;28;20258;-68
2024/01/03 00:24:48;;;;;;;15.07;9.77;;;;;;;8.95;88.09;94283.97;5078890;28;20190;-71
2024/01/03 00:27:16;;;;;;;13.03;9.27;;;;;;;8.95;88.10;94286.50;5074344;28;20183;-69
2024/01/03 00:29:53;;;;;;;12.80;9.03;;;;;;;8.90;88.10;94292.03;5073561;28;20198;-70
2024/01/03 00:32:23;;;;;;;12.77;9.37;;;;;;;8.75;88.17;94261.03;5073102;28;20697;-69
2024/01/03 00:34:51;;;;;;;12.67;8.97;;;;;;;8.93;87.92;94289.19;5072658;28;20314;-71
2024/01/03 00:37:29;;;;;;;13.13;9.37;;;;;;;8.90;88.10;94270.81;5077625;28;20194;-69
2024/01/03 00:39:57;;;;;;;13.83;9.27;;;;;;;8.92;88.14;94282.47;5088803;28;20202;-73
2024/01/03 00:42:24;;;;;;;11.80;8.80;;;;;;;8.93;88.19;94283.28;5090696;28;20183;-69
2024/01/03 00:44:51;;;;;;;16.73;8.87;;;;;;;8.93;88.26;94290.91;5077016;28;20209;-69
2024/01/03 00:47:19;;;;;;;12.63;8.53;;;;;;;8.87;88.13;94273.63;5073071;28;20190;-72
2024/01/03 00:49:48;;;;;;;13.37;8.67;;;;;;;8.94;88.14;94282.34;5072346;28;20256;-71
2024/01/03 00:52:16;;;;;;;11.47;8.83;;;;;;;8.93;88.08;94273.06;5072227;28;20764;-69
2024/01/03 00:54:46;;;;;;;11.53;8.97;;;;;;;8.82;88.25;94266.41;5071954;28;20282;-70
2024/01/03 00:57:14;;;;;;;13.53;9.43;;;;;;;8.50;88.36;94213.19;5071415;28;20324;-68
2024/01/03 00:59:41;;;;;;;13.07;9.67;;;;;;;8.95;88.22;94284.75;5071643;28;20199;-70
2024/01/03 01:02:08;;;;;;;12.70;9.40;;;;;;;8.96;88.09;94290.66;5071223;28;20206;-69
2024/01/03 01:04:39;;;;;;;10.87;9.10;;;;;;;8.98;88.07;94283.66;5071125;28;20197;-67
2024/01/03 01:07:07;;;;;;;13.03;9.37;;;;;;;8.98;88.19;94291.31;5071648;28;20197;-69
2024/01/03 01:09:34;;;;;;;13.57;9.17;;;;;;;9.00;88.19;94286.88;5071059;28;20190;-68
2024/01/03 01:12:00;;;;;;;13.27;8.90;;;;;;;9.00;88.26;94282.59;5070895;28;20225;-69
2024/01/03 01:14:28;;;;;;;12.97;8.57;;;;;;;8.57;88.27;94208.38;5071865;28;20657;-71
2024/01/03 01:16:55;;;;;;;13.23;9.83;;;;;;;9.01;88.11;94279.09;5071023;28;20634;-69
2024/01/03 01:19:22;;;;;;;12.50;9.20;;;;;;;8.91;88.11;94250.28;5071351;28;20736;-70
2024/01/03 01:21:48;;;;;;;14.73;9.40;;;;;;;9.02;88.12;94267.97;5070965;28;20565;-69
2024/01/03 01:24:17;;;;;;;14.40;9.27;;;;;;;9.02;88.14;94267.97;5071390;28;20194;-68
2024/01/03 01:26:44;;;;;;;13.40;9.13;;;;;;;9.03;88.08;94271.31;5070865;28;20190;-67
2024/01/03 01:29:10;;;;;;;14.23;10.17;;;;;;;9.04;88.05;94262.72;5071484;28;20186;-68
2024/01/03 01:31:37;;;;;;;12.03;9.80;;;;;;;9.01;88.00;94252.78;5071186;28;20615;-65
2024/01/03 01:34:04;;;;;;;12.67;9.40;;;;;;;9.02;88.02;94239.91;5069622;28;20193;-66
2024/01/03 01:36:31;;;;;;;16.90;10.13;;;;;;;9.05;87.97;94254.91;5071106;28;20190;-66
2024/01/03 01:38:57;;;;;;;12.37;9.57;;;;;;;9.05;88.27;94244.72;5070733;28;20194;-66
2024/01/03 01:41:26;;;;;;;14.60;9.90;;;;;;;9.05;88.11;94244.72;5070962;28;20193;-66
2024/01/03 01:43:53;;;;;;;13.10;10.07;;;;;;;8.84;88.16;94210.16;5070750;28;20668;-66
2024/01/03 01:46:20;;;;;;;14.27;10.17;;;;;;;8.84;88.12;94226.25;5070948;28;20210;-65
2024/01/03 01:48:47;;;;;;;12.37;9.67;;;;;;;8.72;87.95;94199.31;5071130;28;20688;-67
2024/01/03 01:51:15;;;;;;;13.33;9.67;;;;;;;9.06;88.19;94258.28;5077748;28;20229;-66
2024/01/03 01:53:42;;;;;;;14.37;10.30;;;;;;;9.06;88.31;94245.53;5070921;28;20676;-65
2024/01/03 01:56:11;;;;;;;15.93;10.47;;;;;;;9.07;88.19;94253.97;5073365;28;20657;-66
2024/01/03 01:58:41;;;;;;;11.97;10.17;;;;;;;9.09;88.36;94239.34;5074899;28;20190;-66
2024/01/03 02:01:08;;;;;;;13.47;9.53;;;;;;;8.63;88.03;94183.13;5085676;28;20236;-67
2024/01/03 02:03:37;;;;;;;15.37;10.07;;;;;;;9.09;88.05;94252.09;5088836;28;20250;-66
2024/01/03 02:06:06;;;;;;;15.23;10.80;;;;;;;8.87;88.01;94222.66;5073231;28;20236;-69
2024/01/03 02:08:34;;;;;;;13.87;10.23;;;;;;;9.09;88.17;94254.66;5070488;28;20210;-68
2024/01/03 02:11:03;;;;;;;15.83;10.30;;;;;;;9.09;88.13;94252.91;5071368;28;20226;-71
2024/01/03 02:13:29;;;;;;;13.03;10.00;;;;;;;9.09;88.00;94260.56;5082624;28;20316;-71
2024/01/03 02:15:57;;;;;;;13.07;9.93;;;;;;;9.09;87.98;94263.09;5079061;28;20179;-69
2024/01/03 02:18:25;;;;;;;14.67;10.73;;;;;;;9.10;88.03;94257.06;5070181;28;20622;-71
2024/01/03 02:20:54;;;;;;;14.33;10.60;;;;;;;9.09;88.16;94260.56;5070636;28;20197;-70
2024/01/03 02:23:22;;;;;;;12.27;9.63;;;;;;;9.09;88.19;94254.66;5070870;28;20273;-71
2024/01/03 02:25:49;;;;;;;14.27;10.43;;;;;;;9.06;87.88;94242.97;5070579;28;20649;-68
2024/01/03 02:28:16;;;;;;;14.50;10.30;;;;;;;9.07;87.99;94248.88;5070392;28;20182;-68
2024/01/03 02:30:44;;;;;;;14.80;9.73;;;;;;;9.05;88.06;94241.38;5070160;28;20261;-70
2024/01/03 02:33:11;;;;;;;14.43;10.30;;;;;;;9.08;87.82;94241.09;5069752;28;20744;-68
2024/01/03 02:35:38;;;;;;;14.93;10.43;;;;;;;9.02;87.97;94226.34;5069970;28;20194;-68
2024/01/03 02:38:06;;;;;;;14.00;10.87;;;;;;;8.90;88.07;94201.97;5070197;28;20186;-69
2024/01/03 02:40:34;;;;;;;14.03;9.83;;;;;;;9.07;88.02;94229.28;5069842;28;20194;-69
2024/01/03 02:43:01;;;;;;;14.30;10.27;;;;;;;8.92;88.00;94213.63;5069904;28;20198;-70
2024/01/03 02:45:28;;;;;;;14.33;10.50;;;;;;;9.08;88.02;94235.19;5069237;28;20190;-68
2024/01/03 02:47:55;;;;;;;13.83;10.10;;;;;;;9.02;87.68;94211.03;5069744;28;20183;-70
2024/01/03 02:50:22;;;;;;;14.77;11.00;;;;;;;9.09;88.18;94206.19;5069874;28;20645;-71
2024/01/03 02:52:48;;;;;;;16.50;10.30;;;;;;;8.92;87.89;94195.78;5070053;28;20221;-71
2024/01/03 02:55:15;;;;;;;13.90;10.17;;;;;;;9.11;88.04;94204.28;5070102;28;20198;-69
2024/01/03 02:57:43;;;;;;;12.87;9.23;;;;;;;9.11;87.97;94205.13;5069789;28;20205;-66
2024/01/03 03:00:11;;;;;;;14.13;9.70;;;;;;;9.12;87.93;94211.03;5069476;28;20179;-70
2024/01/03 03:02:38;;;;;;;14.37;10.27;;;;;;;9.13;88.14;94205.75;5068099;28;20240;-67
2024/01/03 03:05:05;;;;;;;15.10;10.00;;;;;;;8.77;87.98;94139.34;5069479;28;20194;-67
2024/01/03 03:07:32;;;;;;;12.63;9.30;;;;;;;9.14;88.16;94198.91;5069456;28;20225;-67
2024/01/03 03:09:59;;;;;;;11.07;9.17;;;;;;;9.16;88.07;94191.94;5069358;28;20226;-71
2024/01/03 03:12:26;;;;;;;13.53;10.17;;;;;;;9.17;88.14;94202.00;5069283;28;20229;-65
2024/01/03 03:14:54;;;;;;;14.60;10.03;;;;;;;9.17;88.25;94202.00;5069646;28;20186;-70
2024/01/03 03:17:21;;;;;;;14.03;10.33;;;;;;;9.19;88.10;94205.19;5069505;28;20190;-68
2024/01/03 03:19:48;;;;;;;11.87;8.97;;;;;;;9.22;88.27;94204.13;5069456;28;20189;-70
2024/01/03 03:22:14;;;;;;;13.67;9.23;;;;;;;9.23;88.22;94208.25;5069280;28;20186;-66
2024/01/03 03:24:41;;;;;;;14.37;9.53;;;;;;;9.25;88.22;94198.75;5069463;28;20205;-69
2024/01/03 03:27:08;;;;;;;10.97;8.97;;;;;;;9.26;88.25;94192.69;5068983;28;20229;-70
2024/01/03 03:29:35;;;;;;;12.70;10.17;;;;;;;9.25;88.24;94201.28;5069946;28;20187;-68
2024/01/03 03:32:03;;;;;;;10.47;8.10;;;;;;;9.29;88.29;94184.75;5068802;28;20209;-69
2024/01/03 03:34:30;;;;;;;16.13;8.20;;;;;;;9.30;88.28;94186.34;5068972;28;20186;-69
2024/01/03 03:36:57;;;;;;;12.03;9.43;;;;;;;9.09;88.09;94139.88;5069500;28;20183;-69
2024/01/03 03:39:23;;;;;;;12.80;9.20;;;;;;;9.34;88.30;94180.03;5069099;28;20243;-69
2024/01/03 03:41:50;;;;;;;10.23;8.63;;;;;;;9.36;88.34;94179.88;5069424;28;20186;-69
2024/01/03 03:44:17;;;;;;;12.27;9.13;;;;;;;9.38;88.35;94171.13;5068807;28;20186;-71
2024/01/03 03:46:44;;;;;;;10.70;8.53;;;;;;;9.36;88.53;94159.47;5075032;28;20191;-72
2024/01/03 03:49:12;;;;;;;10.40;8.90;;;;;;;9.41;88.33;94172.59;5073386;28;20194;-70
2024/01/03 03:51:39;;;;;;;13.63;9.13;;;;;;;9.37;88.41;94174.63;5069126;28;20225;-68
2024/01/03 03:54:05;;;;;;;11.63;8.77;;;;;;;9.42;88.47;94159.69;5069472;28;20213;-70
2024/01/03 03:56:32;;;;;;;12.17;8.90;;;;;;;9.30;88.38;94143.78;5069431;28;20292;-70
2024/01/03 03:58:59;;;;;;;10.13;7.90;;;;;;;9.45;88.29;94161.94;5073325;28;20198;-71
2024/01/03 04:01:26;;;;;;;11.10;8.73;;;;;;;9.46;88.28;94161.03;5075096;28;20183;-69
2024/01/03 04:03:52;;;;;;;13.07;8.97;;;;;;;9.47;88.26;94172.81;5077453;28;20926;-69
2024/01/03 04:06:21;;;;;;;11.03;8.60;;;;;;;9.49;88.42;94178.56;5074423;28;20198;-71
2024/01/03 04:08:48;;;;;;;11.30;8.63;;;;;;;9.49;88.44;94168.38;5077530;28;20190;-70
2024/01/03 04:11:15;;;;;;;10.50;8.70;;;;;;;9.25;88.25;94130.66;5073180;28;20237;-70
2024/01/03 04:13:42;;;;;;;10.73;7.93;;;;;;;9.31;88.31;94134.38;5072650;28;20613;-68
2024/01/03 04:16:10;;;;;;;10.07;8.03;;;;;;;9.53;88.32;94179.91;5072496;28;20178;-72
2024/01/03 04:18:37;;;;;;;12.07;8.73;;;;;;;9.45;88.04;94159.38;5072159;28;20317;-69
2024/01/03 04:21:07;;;;;;;10.00;8.03;;;;;;;9.54;88.17;94181.53;5072117;28;20595;-69
2024/01/03 04:23:36;;;;;;;14.70;8.73;;;;;;;9.54;88.04;94173.03;5072877;28;20226;-70
2024/01/03 04:26:03;;;;;;;13.40;9.73;;;;;;;9.54;88.08;94168.75;5075674;28;20652;-69
2024/01/03 04:28:30;;;;;;;11.73;8.60;;;;;;;9.44;88.23;94173.09;5080278;28;20191;-68
2024/01/03 04:30:56;;;;;;;11.10;8.80;;;;;;;9.55;88.43;94193.34;5079094;28;20182;-72
2024/01/03 04:33:23;;;;;;;11.57;8.80;;;;;;;9.56;88.10;94204.34;5074208;28;20222;-70
2024/01/03 04:35:50;;;;;;;13.60;9.07;;;;;;;9.55;88.18;94198.44;5073556;28;20194;-69
2024/01/03 04:38:17;;;;;;;10.20;8.30;;;;;;;9.39;88.09;94185.50;5073718;28;20191;-72
2024/01/03 04:40:45;;;;;;;12.07;8.97;;;;;;;9.54;88.14;94204.50;5073028;28;20197;-68
2024/01/03 04:43:12;;;;;;;11.20;8.50;;;;;;;9.26;88.16;94154.41;5073720;28;20274;-71
2024/01/03 04:45:39;;;;;;;11.47;8.80;;;;;;;9.40;87.93;94174.34;5080326;28;20194;-70
2024/01/03 04:48:06;;;;;;;11.90;8.77;;;;;;;9.50;88.08;94189.63;5080327;28;20185;-70
2024/01/03 04:50:33;;;;;;;11.53;8.67;;;;;;;9.52;87.95;94195.38;5078968;28;20206;-67
2024/01/03 04:53:00;;;;;;;10.57;8.83;;;;;;;9.25;87.97;94153.63;5072605;28;20217;-70
2024/01/03 04:55:27;;;;;;;11.73;8.90;;;;;;;9.35;88.01;94168.06;5076273;28;20194;-67
2024/01/03 04:57:55;;;;;;;11.87;8.73;;;;;;;9.51;88.16;94188.66;5079632;28;20201;-68
2024/01/03 05:00:22;;;;;;;11.37;8.47;;;;;;;9.50;87.84;94192.16;5072371;28;20194;-67
2024/01/03 05:02:48;;;;;;;10.53;8.27;;;;;;;9.27;87.92;94158.56;5071449;28;20194;-66
2024/01/03 05:05:15;;;;;;;14.17;9.10;;;;;;;9.50;87.84;94179.41;5071104;28;20185;-67
2024/01/03 05:07:42;;;;;;;10.93;9.23;;;;;;;9.50;87.87;94175.09;5071895;28;20613;-66
2024/01/03 05:10:10;;;;;;;11.30;9.43;;;;;;;9.50;87.92;94187.88;5074316;28;20709;-65
2024/01/03 05:12:37;;;;;;;14.47;10.00;;;;;;;9.51;87.87;94181.00;5072091;28;20225;-66
2024/01/03 05:15:06;;;;;;;11.57;9.23;;;;;;;9.51;87.84;94179.25;5071839;28;20183;-67
2024/01/03 05:17:33;;;;;;;10.53;8.00;;;;;;;9.52;88.06;94170.63;5070894;28;20653;-67
2024/01/03 05:20:00;;;;;;;12.73;9.27;;;;;;;9.53;87.99;94176.53;5071814;28;20221;-68
2024/01/03 05:22:26;;;;;;;16.73;9.70;;;;;;;9.54;87.76;94170.47;5071920;28;20193;-67
2024/01/03 05:24:54;;;;;;;13.07;10.00;;;;;;;9.54;87.98;94167.94;5071486;28;20198;-69
2024/01/03 05:27:22;;;;;;;12.33;8.97;;;;;;;9.55;88.18;94179.78;5071145;28;20226;-71
2024/01/03 05:29:49;;;;;;;11.20;9.67;;;;;;;9.47;88.13;94162.63;5070758;28;20251;-69
2024/01/03 05:32:17;;;;;;;10.83;8.33;;;;;;;9.51;88.05;94168.25;5070499;28;20279;-70
2024/01/03 05:34:45;;;;;;;13.03;9.87;;;;;;;9.51;87.92;94170.78;5071000;28;20226;-69
2024/01/03 05:37:12;;;;;;;14.00;9.47;;;;;;;9.57;88.02;94182.16;5071384;28;20206;-69
2024/01/03 05:39:38;;;;;;;12.53;9.50;;;;;;;9.58;88.31;94186.31;5070872;28;20201;-66
2024/01/03 05:42:06;;;;;;;11.33;8.90;;;;;;;9.56;87.92;94189.03;5071209;28;20186;-69
2024/01/03 05:44:33;;;;;;;12.63;9.67;;;;;;;9.55;88.06;94187.44;5072056;28;20206;-68
2024/01/03 05:47:01;;;;;;;12.07;9.60;;;;;;;9.48;87.99;94182.09;5077416;28;20186;-70
2024/01/03 05:49:29;;;;;;;12.63;9.87;;;;;;;9.56;88.09;94183.91;5070524;28;20190;-69
2024/01/03 05:51:56;;;;;;;13.37;10.17;;;;;;;9.32;88.08;94150.47;5070525;28;20210;-67
2024/01/03 05:54:23;;;;;;;12.47;9.00;;;;;;;9.55;87.98;94190.78;5070634;28;20290;-70
2024/01/03 05:56:51;;;;;;;13.80;10.73;;;;;;;9.57;88.12;94182.16;5070450;28;20572;-69
2024/01/03 05:59:18;;;;;;;12.00;8.10;;;;;;;9.62;90.90;94180.78;5070642;28;20183;-68
2024/01/03 06:01:45;;;;;;;11.63;9.97;;;;;;;10.10;100.00;94196.69;5070171;28;20281;-70
2024/01/03 06:04:13;;;;;;;12.90;8.43;;;;;;;10.45;100.00;94178.81;5069713;28;20206;-72
2024/01/03 06:06:41;;;;;;;13.93;9.43;;;;;;;10.59;100.00;94171.56;5070332;28;20255;-70
2024/01/03 06:09:08;;;;;;;13.13;8.57;;;;;;;10.67;99.36;94153.72;5070757;28;20515;-71
2024/01/03 06:11:35;;;;;;;13.13;10.00;;;;;;;10.77;97.71;94170.53;5069871;28;20675;-71
2024/01/03 06:14:02;;;;;;;12.77;9.67;;;;;;;10.71;95.60;94189.06;5070415;28;20252;-71
2024/01/03 06:16:28;;;;;;;14.47;9.30;;;;;;;10.63;94.29;94200.97;5070412;28;20190;-69
2024/01/03 06:18:55;;;;;;;15.77;10.37;;;;;;;10.52;92.56;94189.22;5070858;28;20190;-69
2024/01/03 06:21:22;;;;;;;13.60;9.53;;;;;;;10.49;91.93;94192.06;5069641;28;20290;-69
2024/01/03 06:23:50;;;;;;;13.73;10.00;;;;;;;10.41;91.04;94185.19;5070566;28;20281;-69
2024/01/03 06:26:17;;;;;;;13.73;9.70;;;;;;;10.37;90.73;94198.41;5069848;28;20194;-70
2024/01/03 06:28:44;;;;;;;19.47;10.57;;;;;;;10.33;90.25;94207.31;5070542;28;20190;-72
2024/01/03 06:31:10;;;;;;;14.73;10.20;;;;;;;10.27;90.20;94201.81;5070325;28;20564;-70
2024/01/03 06:33:37;;;;;;;11.97;9.57;;;;;;;10.22;89.73;94185.31;5070114;28;20623;-71
2024/01/03 06:36:05;;;;;;;17.30;11.47;;;;;;;10.18;89.54;94182.25;5070902;28;20252;-72
2024/01/03 06:38:31;;;;;;;15.10;10.10;;;;;;;10.15;89.35;94187.66;5069904;28;20186;-73
2024/01/03 06:40:59;;;;;;;12.53;10.17;;;;;;;10.13;89.28;94181.09;5064881;28;20198;-70
2024/01/03 06:43:26;;;;;;;13.90;10.17;;;;;;;10.11;89.18;94176.13;5064044;28;20252;-71
2024/01/03 06:45:53;;;;;;;14.23;10.50;;;;;;;10.10;89.21;94166.03;5085198;28;20198;-73
2024/01/03 06:48:20;;;;;;;15.03;11.10;;;;;;;10.09;89.16;94169.56;5071986;28;20187;-73
2024/01/03 06:50:46;;;;;;;13.57;9.70;;;;;;;10.01;89.01;94168.53;5069556;28;20198;-70
2024/01/03 06:53:14;;;;;;;17.77;11.13;;;;;;;10.07;89.01;94204.69;5069388;28;20222;-70
2024/01/03 06:55:41;;;;;;;16.73;10.97;;;;;;;10.02;88.81;94184.69;5069817;28;20187;-72
2024/01/03 06:58:09;;;;;;;17.57;10.57;;;;;;;10.05;88.88;94174.16;5069285;28;20209;-70
2024/01/03 07:00:36;;;;;;;13.80;10.53;;;;;;;10.04;89.05;94170.78;5069231;28;20197;-69
2024/01/03 07:03:03;;;;;;;15.03;10.97;;;;;;;10.02;89.00;94187.25;5068762;28;20198;-71
2024/01/03 07:05:29;;;;;;;14.67;10.80;;;;;;;10.03;89.06;94181.16;5069243;28;20203;-70
2024/01/03 07:07:58;;;;;;;14.63;10.83;;;;;;;9.96;88.91;94164.81;5070065;28;20602;-70
2024/01/03 07:10:31;;;;;;;13.10;10.93;;;;;;;10.08;88.93;94178.19;5069983;28;20230;-70
2024/01/03 07:12:58;;;;;;;12.03;10.17;;;;;;;10.09;88.72;94190.00;5070109;28;20317;-71
2024/01/03 07:15:26;;;;;;;14.53;9.87;;;;;;;10.07;88.69;94171.47;5069604;28;20201;-70
2024/01/03 07:17:55;;;;;;;17.87;10.63;;;;;;;9.95;88.58;94145.34;5069729;28;20220;-71
2024/01/03 07:20:21;;;;;;;13.60;10.57;;;;;;;10.13;88.39;94174.22;5061518;28;20182;-71
2024/01/03 07:22:48;;;;;;;15.73;9.73;;;;;;;10.15;88.28;94191.97;5069094;28;20687;-72
2024/01/03 07:25:15;;;;;;;13.17;9.67;;;;;;;10.11;88.22;94191.47;5069528;28;20726;-70
2024/01/03 07:27:42;;;;;;;13.30;9.40;;;;;;;10.18;88.09;94195.00;5069564;28;20193;-72
2024/01/03 07:30:10;;;;;;;13.03;9.93;;;;;;;10.11;88.09;94178.69;5069271;28;20632;-72
2024/01/03 07:32:38;;;;;;;14.17;9.97;;;;;;;10.24;87.88;94188.53;5071960;28;20292;-70
2024/01/03 07:35:06;;;;;;;13.90;10.10;;;;;;;10.20;87.60;94177.00;5073481;28;20204;-71
2024/01/03 07:37:33;;;;;;;13.40;10.00;;;;;;;10.24;87.79;94184.25;5092038;28;20189;-73
2024/01/03 07:40:00;;;;;;;12.33;8.87;;;;;;;10.31;87.60;94202.34;5082324;28;20244;-72
2024/01/03 07:42:27;;;;;;;12.47;9.57;;;;;;;10.33;87.50;94199.66;5073820;28;20198;-70
2024/01/03 07:44:54;;;;;;;13.43;9.27;;;;;;;10.18;87.39;94153.34;5077470;28;20205;-71
2024/01/03 07:47:21;;;;;;;14.43;10.77;;;;;;;10.39;87.29;94188.81;5071931;28;20187;-70
2024/01/03 07:49:49;;;;;;;12.87;9.40;;;;;;;10.42;87.02;94184.22;5071728;28;20190;-71
2024/01/03 07:52:16;;;;;;;11.57;9.43;;;;;;;10.44;86.95;94173.84;5071791;28;20277;-70
2024/01/03 07:54:43;;;;;;;11.60;9.07;;;;;;;10.47;86.93;94178.66;5072046;28;20186;-71
2024/01/03 07:57:09;;;;;;;11.70;8.93;;;;;;;10.49;86.82;94177.56;5067762;28;20740;-72
2024/01/03 07:59:40;;;;;;;11.30;9.17;;;;;;;10.52;86.77;94182.34;5068688;28;20190;-72
2024/01/03 08:02:07;;;;;;;12.37;9.53;;;;;;;10.34;86.76;94153.50;5071505;28;20217;-70
2024/01/03 08:04:34;;;;;;;11.47;8.63;;;;;;;10.59;86.59;94171.56;5071574;28;20202;-71
2024/01/03 08:07:02;;;;;;;12.47;9.47;;;;;;;10.61;86.48;94174.75;5071587;28;20186;-71
2024/01/03 08:09:29;;;;;;;11.80;9.03;;;;;;;10.63;86.36;94162.63;5071400;28;20231;-70
2024/01/03 08:11:55;;;;;;;12.63;8.63;;;;;;;10.65;86.12;94140.25;5071358;28;20222;-70
2024/01/03 08:14:23;;;;;;;18.63;9.17;;;;;;;10.69;86.20;94165.38;5071516;28;20619;-71
2024/01/03 08:16:50;;;;;;;12.00;9.40;;;;;;;10.74;85.99;94160.59;5071809;28;20255;-70
2024/01/03 08:19:17;;;;;;;10.67;8.60;;;;;;;10.55;85.84;94125.03;5071790;28;20194;-71
2024/01/03 08:21:43;;;;;;;12.13;8.70;;;;;;;10.84;85.72;94152.00;5071276;28;20205;-72
2024/01/03 08:24:12;;;;;;;10.60;8.17;;;;;;;10.89;85.58;94191.53;5070868;28;20194;-69
2024/01/03 08:26:39;;;;;;;12.07;8.83;;;;;;;10.94;85.56;94155.28;5070672;28;20195;-71
2024/01/03 08:29:05;;;;;;;9.83;7.90;;;;;;;10.61;85.46;94111.63;5072036;28;20194;-70
2024/01/03 08:31:33;;;;;;;11.20;8.50;;;;;;;11.05;85.28;94178.00;5072556;28;20186;-67
2024/01/03 08:34:00;;;;;;;10.43;8.27;;;;;;;11.02;85.14;94155.31;5071905;28;20248;-71
2024/01/03 08:36:39;;;;;;;11.07;8.57;;;;;;;10.88;84.99;94104.72;5071559;28;20197;-71
2024/01/03 08:39:06;;;;;;;9.97;8.30;;;;;;;11.15;85.06;94147.22;5074442;28;20213;-70
2024/01/03 08:41:34;;;;;;;8.93;8.03;;;;;;;11.18;84.91;94157.94;5078484;28;20205;-72
2024/01/03 08:44:02;;;;;;;9.80;8.20;;;;;;;11.22;84.86;94143.06;5071420;28;20198;-69
2024/01/03 08:46:31;;;;;;;10.10;7.97;;;;;;;11.26;84.71;94147.72;5070944;28;20205;-70
2024/01/03 08:48:58;;;;;;;12.20;8.47;;;;;;;11.30;84.43;94155.88;5069692;28;20282;-71
2024/01/03 08:51:24;;;;;;;11.60;8.50;;;;;;;11.27;84.59;94151.88;5077755;28;20699;-68
2024/01/03 08:53:51;;;;;;;10.83;8.17;;;;;;;11.32;84.56;94136.06;5077110;28;20231;-72
2024/01/03 08:56:19;;;;;;;11.10;8.37;;;;;;;11.15;84.36;94117.28;5078699;28;20190;-70
2024/01/03 08:58:48;;;;;;;11.47;8.13;;;;;;;11.35;84.15;94125.50;5078665;28;20190;-74
2024/01/03 09:01:18;;;;;;;10.43;8.50;;;;;;;11.38;84.05;94124.38;5070811;28;20182;-70
2024/01/03 09:03:46;;;;;;;13.20;8.80;;;;;;;11.32;83.96;94110.47;5068672;28;20658;-72
2024/01/03 09:06:14;;;;;;;12.00;9.33;;;;;;;11.41;83.98;94127.44;5071496;28;20281;-71
2024/01/03 09:08:42;;;;;;;14.30;9.90;;;;;;;11.38;83.99;94117.50;5069919;28;20202;-71
2024/01/03 09:11:11;;;;;;;13.63;10.00;;;;;;;11.44;83.81;94126.31;5070646;28;20621;-71
2024/01/03 09:13:38;;;;;;;14.27;10.10;;;;;;;11.47;83.72;94123.44;5070167;28;20778;-71
2024/01/03 09:16:09;;;;;;;13.37;11.20;;;;;;;11.47;83.51;94108.09;5071152;28;20194;-70
2024/01/03 09:18:36;;;;;;;14.60;12.00;;;;;;;10.72;83.41;93986.06;5070384;28;20224;-70
2024/01/03 09:21:03;;;;;;;20.37;12.47;;;;;;;11.61;83.28;94117.69;5070489;28;20206;-70
2024/01/03 09:23:30;;;;;;;19.00;12.60;;;;;;;11.66;82.97;94099.34;5070693;28;20248;-71
2024/01/03 09:25:56;;;;;;;22.80;14.60;;;;;;;11.71;82.67;94102.22;5070166;28;20206;-72
2024/01/03 09:28:24;;;;;;;24.40;15.67;;;;;;;11.74;82.65;94114.69;5068107;28;20649;-72
2024/01/03 09:30:51;;;;;;;22.87;15.33;;;;;;;11.77;82.42;94116.94;5069643;28;20604;-69
2024/01/03 09:33:19;;;;;;;21.97;15.77;;;;;;;11.78;82.48;94105.72;5070243;28;20731;-71
2024/01/03 09:35:46;;;;;;;21.93;15.73;;;;;;;11.81;82.21;94106.19;5069603;28;20200;-70
2024/01/03 09:38:14;;;;;;;23.93;16.60;;;;;;;11.85;82.27;94100.81;5074095;28;20190;-69
2024/01/03 09:40:41;;;;;;;25.93;16.67;;;;;;;11.87;81.99;94101.44;5073509;28;20201;-70
2024/01/03 09:43:10;;;;;;;26.87;17.40;;;;;;;11.71;81.83;94076.59;5069717;28;20248;-70
2024/01/03 09:45:37;;;;;;;27.40;17.67;;;;;;;11.80;82.05;94091.81;5069570;28;20186;-71
2024/01/03 09:48:04;;;;;;;23.27;16.63;;;;;;;11.84;82.04;94071.03;5070073;28;20197;-70
2024/01/03 09:50:33;;;;;;;22.07;17.07;;;;;;;11.80;81.76;94101.25;5069381;28;20190;-72
2024/01/03 09:53:02;;;;;;;32.97;18.80;;;;;;;11.90;81.83;94108.81;5069880;28;20195;-70
2024/01/03 09:55:29;;;;;;;21.87;15.33;;;;;;;11.90;81.76;94101.91;5069400;28;20538;-70
2024/01/03 09:57:57;;;;;;;24.87;17.77;;;;;;;11.78;81.81;94083.47;5073279;28;20278;-69
2024/01/03 10:00:29;;;;;;;21.80;16.93;;;;;;;11.71;81.51;94079.94;5072893;28;20186;-67
2024/01/03 10:03:01;;;;;;;22.90;15.97;;;;;;;11.87;81.74;94106.56;5070436;28;20268;-68
2024/01/03 10:05:28;;;;;;;25.23;16.07;;;;;;;11.87;81.84;94101.44;5066378;28;20190;-68
2024/01/03 10:07:56;;;;;;;23.20;16.80;;;;;;;11.87;81.90;94094.53;5070064;28;20198;-70
2024/01/03 10:10:34;;;;;;;29.80;16.50;;;;;;;11.69;81.87;94061.38;5071176;28;20682;-72
2024/01/03 10:13:18;;;;;;;22.97;16.70;;;;;;;11.87;81.78;94086.06;5070986;28;20186;-71
2024/01/03 10:15:46;;;;;;;22.13;15.93;;;;;;;11.62;81.59;94037.38;5069250;28;20197;-70
2024/01/03 10:18:17;;;;;;;19.43;15.43;;;;;;;11.86;81.70;94077.56;5069546;28;20646;-70
2024/01/03 10:20:44;;;;;;;18.50;14.27;;;;;;;11.87;81.77;94074.03;5077874;28;20197;-68
2024/01/03 10:23:13;;;;;;;21.67;14.97;;;;;;;11.86;81.77;94075.00;5076173;28;20218;-69
2024/01/03 10:25:41;;;;;;;22.10;14.37;;;;;;;11.78;81.80;94044.25;5068674;28;20201;-72
2024/01/03 10:28:13;;;;;;;18.57;14.77;;;;;;;11.89;81.87;94054.19;5068438;28;20198;-70
2024/01/03 10:30:40;;;;;;;21.97;14.20;;;;;;;11.90;81.91;94060.13;5068552;28;20191;-71
2024/01/03 10:33:08;;;;;;;23.23;14.33;;;;;;;11.90;81.63;94048.09;5068608;28;20221;-68
2024/01/03 10:35:36;;;;;;;19.40;13.80;;;;;;;11.85;81.93;94040.13;5068145;28;20183;-70
2024/01/03 10:38:03;;;;;;;20.40;12.90;;;;;;;11.94;81.95;94054.50;5065861;28;20244;-70
2024/01/03 10:40:32;;;;;;;17.27;12.43;;;;;;;11.86;81.76;94002.47;5068649;28;20186;-71
2024/01/03 10:43:00;;;;;;;16.00;13.00;;;;;;;11.93;81.76;93999.13;5065868;28;20229;-68
2024/01/03 10:45:27;;;;;;;26.33;13.60;;;;;;;12.13;81.67;94014.13;5068774;28;20210;-71
2024/01/03 10:47:54;;;;;;;22.23;14.23;;;;;;;12.21;81.44;94021.78;5068637;28;20194;-70
2024/01/03 10:50:21;;;;;;;19.07;14.57;;;;;;;12.18;81.23;93999.06;5068348;28;20277;-71
2024/01/03 10:52:51;;;;;;;16.07;12.57;;;;;;;12.26;81.39;94004.16;5068257;28;20191;-71
2024/01/03 10:55:20;;;;;;;17.13;12.80;;;;;;;12.08;81.26;93977.94;5068655;28;20218;-71
2024/01/03 10:57:58;;;;;;;18.37;13.13;;;;;;;12.31;81.23;93994.22;5069083;28;20190;-71
2024/01/03 11:00:40;;;;;;;21.10;13.10;;;;;;;12.34;81.43;93999.00;5068708;28;20236;-70
2024/01/03 11:03:17;;;;;;;17.77;13.00;;;;;;;12.39;81.35;94001.88;5066846;28;20186;-72
2024/01/03 11:05:56;;;;;;;21.97;12.83;;;;;;;12.27;81.41;93978.38;5068039;28;20221;-72
2024/01/03 11:08:30;;;;;;;17.97;12.43;;;;;;;12.43;81.41;93990.31;5067616;28;20190;-72
2024/01/03 11:10:56;;;;;;;18.20;12.97;;;;;;;12.35;81.41;93984.41;5069156;28;20712;-71
2024/01/03 11:13:30;;;;;;;19.43;12.80;;;;;;;12.48;81.19;94000.09;5070175;28;20230;-72
2024/01/03 11:15:58;;;;;;;15.50;11.70;;;;;;;12.29;81.20;93978.97;5069506;28;20192;-70
2024/01/03 11:18:51;;;;;;;16.80;12.03;;;;;;;12.50;81.28;93998.94;5083246;28;20229;-73
2024/01/03 11:21:46;;;;;;;16.37;11.23;;;;;;;12.49;81.31;93997.34;5072924;28;20277;-72
2024/01/03 11:24:56;;;;;;;17.10;12.53;;;;;;;12.51;81.28;94002.31;5075955;28;20178;-72
2024/01/03 11:27:23;;;;;;;13.60;10.73;;;;;;;12.55;81.25;93988.19;5072083;28;20615;-71
2024/01/03 11:29:53;;;;;;;16.00;11.20;;;;;;;12.58;81.11;93994.75;5067164;28;20252;-73
2024/01/03 11:32:34;;;;;;;15.73;11.90;;;;;;;12.63;81.00;93984.78;5068675;28;20194;-72